Data for 05/01/2016

Time Sea-Level Adjusted Pressure Absolute Pressure Temperature Relative Humidity Dew Point   
(mb) (inHg) (mb) (inHg) (C) (F) (%) (C) (F)
00:05 1026 30.3 855 25.25 4.5 40.1 70 -0.4 31.2
00:10 1026 30.3 855 25.25 4.5 40.1 70 -0.4 31.2
00:15 1026 30.3 855 25.25 4.6 40.3 69 -0.6 31
00:20 1026 30.3 855 25.25 4.7 40.5 68 -0.6 30.9
00:25 1026 30.3 855 25.25 4.8 40.6 68 -0.5 31.1
00:30 1026 30.3 855 25.25 4.8 40.6 67 -0.8 30.6
00:35 1026 30.3 855 25.25 4.9 40.8 67 -0.7 30.7
00:40 1026 30.3 855 25.25 4.9 40.9 66 -0.9 30.4
00:45 1026 30.3 855 25.25 4.9 40.8 67 -0.6 30.9
00:50 1026 30.3 855 25.25 4.8 40.7 67 -0.8 30.5
00:55 1026 30.3 855 25.25 4.9 40.8 66 -0.9 30.3
01:00 1026 30.3 855 25.25 4.9 40.7 68 -0.5 31.1
01:05 1026 30.3 855 25.25 4.6 40.3 69 -0.6 30.9
01:10 1026 30.3 855 25.25 4.5 40.1 69 -0.7 30.8
01:15 1026 30.3 855 25.25 4.4 40 69 -0.7 30.7
01:20 1026 30.3 855 25.25 4.3 39.8 71 -0.6 31
01:25 1026 30.3 855 25.25 4.2 39.6 70 -0.7 30.7
01:30 1026 30.3 855 25.25 4.2 39.5 71 -0.6 30.8
01:35 1026 30.3 855 25.25 4.2 39.5 71 -0.7 30.8
01:40 1026 30.3 855 25.25 4.2 39.5 71 -0.7 30.8
01:45 1026 30.3 855 25.25 4.1 39.4 71 -0.6 30.9
01:50 1026 30.3 855 25.25 4.1 39.4 71 -0.7 30.8
01:55 1026 30.3 855 25.25 4.1 39.5 71 -0.6 30.9
02:00 1026 30.3 855 25.25 4.1 39.3 71 -0.6 30.8
02:05 1026 30.3 855 25.25 4 39.3 72 -0.6 30.9
02:10 1026 30.3 855 25.25 4 39.2 71 -0.7 30.7
02:15 1026 30.3 855 25.25 4 39.2 71 -0.7 30.8
02:20 1026 30.3 855 25.25 3.9 39.1 72 -0.7 30.8
02:25 1026 30.3 855 25.25 3.9 39 72 -0.7 30.8
02:30 1026 30.3 855 25.25 3.9 39 72 -0.7 30.7
02:35 1026 30.3 855 25.25 3.9 39 72 -0.6 30.8
02:40 1026 30.3 855 25.25 3.8 38.9 72 -0.7 30.8
02:45 1026 30.3 855 25.25 3.9 39 73 -0.6 30.9
02:50 1026 30.3 855 25.25 3.9 39 72 -0.6 30.9
02:55 1026 30.3 855 25.25 3.9 39 73 -0.6 31
03:00 1026 30.3 855 25.25 3.8 38.9 73 -0.5 31
03:05 1026 30.3 855 25.25 3.8 38.8 73 -0.6 30.9
03:10 1026 30.3 855 25.25 3.8 38.8 73 -0.6 31
03:15 1026 30.3 855 25.25 3.7 38.7 73 -0.6 30.9
03:20 1026 30.3 855 25.25 3.7 38.6 73 -0.6 30.9
03:25 1026 30.3 855 25.25 3.7 38.7 73 -0.7 30.8
03:30 1026 30.3 855 25.25 3.7 38.6 73 -0.7 30.8
03:35 1026 30.3 855 25.25 3.7 38.6 73 -0.7 30.7
03:40 1026 30.3 855 25.25 3.7 38.7 73 -0.7 30.8
03:45 1026 30.3 855 25.25 3.7 38.6 72 -0.8 30.5
03:50 1026 30.3 855 25.25 3.8 38.8 72 -0.7 30.7
03:55 1026 30.3 855 25.25 3.7 38.6 72 -0.8 30.5
04:00 1026 30.3 855 25.25 3.7 38.7 72 -0.8 30.6
04:05 1026 30.3 855 25.25 3.7 38.6 72 -0.9 30.5
04:10 1026 30.3 855 25.25 3.6 38.5 73 -0.8 30.5
04:15 1026 30.3 855 25.25 3.5 38.3 73 -0.9 30.4
04:20 1026 30.3 855 25.25 3.5 38.3 73 -0.9 30.4
04:25 1026 30.3 855 25.25 3.4 38.2 73 -1 30.2
04:30 1026 30.3 855 25.25 3.5 38.2 73 -0.9 30.4
04:35 1026 30.3 855 25.25 3.5 38.2 73 -1 30.3
04:40 1026 30.3 855 25.25 3.4 38.2 73 -1 30.2
04:45 1026 30.3 855 25.25 3.3 38 73 -1 30.1
04:50 1026 30.3 855 25.25 3.2 37.8 73 -1.1 30.1
04:55 1026 30.3 855 25.25 3.3 37.9 73 -1.1 30
05:00 1026 30.3 855 25.25 3.3 37.9 73 -1.1 30.1
05:05 1026 30.3 855 25.25 3.4 38 73 -1 30.1
05:10 1026 30.3 855 25.25 3.3 38 73 -1.1 30.1
05:15 1026 30.3 855 25.25 3.3 37.9 73 -1.1 30.1
05:20 1026 30.3 855 25.25 3.2 37.8 73 -1.1 30
05:25 1026 30.3 855 25.25 3.2 37.8 73 -1.1 30
05:30 1026 30.3 855 25.25 3.1 37.6 74 -1.1 30
05:35 1026 30.3 855 25.25 3.2 37.7 73 -1.1 30
05:40 1026 30.3 855 25.25 3.1 37.6 74 -1.1 29.9
05:45 1026 30.3 855 25.25 3.2 37.8 73 -1.2 29.9
05:50 1026 30.3 855 25.25 3.3 37.9 73 -1.2 29.9
05:55 1026 30.3 855 25.25 3.4 38.2 72 -1.2 29.8
06:00 1026 30.3 855 25.25 3.5 38.4 71 -1.2 29.9
06:05 1026 30.3 855 25.25 3.6 38.5 72 -1.1 30.1
06:10 1026 30.3 855 25.25 3.6 38.5 71 -1.1 30
06:15 1026 30.3 855 25.25 3.7 38.7 71 -1.1 30.1
06:20 1026 30.3 855 25.25 3.8 38.8 70 -1.1 30
06:25 1026 30.3 855 25.25 3.9 39.1 70 -1.1 30
06:30 1026 30.3 855 25.25 4.1 39.4 69 -1.1 30
06:35 1026 30.3 855 25.25 4.3 39.8 68 -1.1 30.1
06:40 1026 30.3 855 25.25 4.5 40.1 67 -1 30.2
06:45 1026 30.3 855 25.25 4.7 40.4 67 -1 30.2
06:50 1026 30.3 855 25.25 4.7 40.4 67 -0.9 30.3
06:55 1026 30.3 855 25.25 4.9 40.7 67 -0.8 30.5
07:00 1026 30.3 855 25.25 5.1 41.1 65 -0.8 30.5
07:05 1026 30.3 856 25.28 5.1 41.2 65 -0.9 30.4
07:10 1026 30.3 855 25.25 5.2 41.4 65 -0.8 30.5
07:15 1026 30.3 856 25.28 5.5 41.9 64 -0.8 30.5
07:20 1026 30.3 856 25.28 5.4 41.8 63 -1.1 30.1
07:25 1026 30.3 856 25.28 5.6 42.1 62 -1.1 30.1
07:30 1026 30.3 856 25.28 5.8 42.4 61 -1.1 30.1
07:35 1026 30.3 856 25.28 6 42.8 60 -1.1 30
07:40 1026 30.3 856 25.28 6.2 43.1 58 -1.5 29.3
07:45 1026 30.3 856 25.28 6.5 43.7 56 -1.5 29.3
07:50 1027 30.33 856 25.28 6.6 43.8 56 -1.7 29
07:55 1026 30.3 856 25.28 6.5 43.8 56 -1.6 29.1
08:00 1026 30.3 856 25.28 6.6 44 54 -2.1 28.2
08:05 1026 30.3 856 25.28 6.9 44.5 53 -2.1 28.3
08:10 1026 30.3 856 25.28 7.2 44.9 52 -2 28.4
08:15 1026 30.3 856 25.28 7.2 45 49 -2.7 27.1
08:20 1026 30.3 856 25.28 7.3 45.1 48 -3 26.7
08:25 1026 30.3 856 25.28 7.4 45.4 47 -3.1 26.5
08:30 1026 30.3 856 25.28 7.6 45.7 46 -3.4 25.9
08:35 1026 30.3 855 25.25 7.8 46 46 -3.1 26.4
08:40 1026 30.3 855 25.25 8.1 46.6 41 -4.3 24.2
08:45 1026 30.3 855 25.25 7.8 46 45 -3.5 25.8
08:50 1026 30.3 855 25.25 8 46.4 43 -3.9 25
08:55 1026 30.3 855 25.25 8 46.4 44 -3.6 25.6
09:00 1026 30.3 855 25.25 7.9 46.3 42 -4.2 24.4
09:05 1026 30.3 855 25.25 8 46.5 42 -4 24.8
09:10 1026 30.3 855 25.25 8.4 47.1 41 -4 24.8
09:15 1026 30.3 855 25.25 8.2 46.7 43 -3.8 25.2
09:20 1026 30.3 855 25.25 8 46.5 43 -3.9 25
09:25 1026 30.3 855 25.25 8.4 47.1 40 -4.6 23.8
09:30 1026 30.3 855 25.25 8.5 47.2 41 -3.9 24.9
09:35 1026 30.3 855 25.25 8.6 47.5 39 -4.6 23.7
09:40 1026 30.3 855 25.25 8.6 47.5 39 -4.4 24
09:45 1026 30.3 855 25.25 8.9 47.9 40 -3.9 25
09:50 1026 30.3 855 25.25 9.2 48.5 39 -4.1 24.5
09:55 1026 30.3 855 25.25 9 48.2 40 -3.9 25
10:00 1026 30.3 855 25.25 9.3 48.7 38 -4.3 24.2
10:05 1026 30.3 855 25.25 9.2 48.6 38 -4.3 24.2
10:10 1026 30.3 855 25.25 9.3 48.7 39 -4 24.8
10:15 1026 30.3 855 25.25 9.6 49.2 38 -3.9 24.9
10:20 1026 30.3 855 25.25 9.4 48.9 37 -4.6 23.7
10:25 1025 30.27 855 25.25 9.9 49.7 38 -3.9 25
10:30 1025 30.27 855 25.25 10.1 50.1 35 -4.6 23.8
10:35 1025 30.27 855 25.25 10.3 50.6 37 -3.7 25.4
10:40 1025 30.27 855 25.25 10.3 50.5 37 -3.8 25.1
10:45 1025 30.27 855 25.25 10.5 50.8 36 -3.9 25
10:50 1025 30.27 855 25.25 10.1 50.2 37 -4 24.8
10:55 1025 30.27 855 25.25 10.2 50.4 36 -4.1 24.6
11:00 1025 30.27 855 25.25 10.5 50.8 36 -4 24.9
11:05 1025 30.27 854 25.22 10.6 51 34 -4.4 24
11:10 1025 30.27 855 25.25 10.9 51.6 34 -4.4 24.1
11:15 1025 30.27 855 25.25 10.8 51.5 34 -4.5 23.8
11:20 1025 30.27 854 25.22 11.3 52.3 33 -4.3 24.2
11:25 1025 30.27 854 25.22 11 51.8 34 -4.3 24.2
11:30 1025 30.27 854 25.22 10.9 51.6 33 -4.6 23.8
11:35 1025 30.27 854 25.22 11 51.9 34 -4.3 24.3
11:40 1025 30.27 854 25.22 11.1 51.9 35 -3.8 25.1
11:45 1025 30.27 854 25.22 11.3 52.3 33 -4.4 24
11:50 1025 30.27 854 25.22 11.4 52.5 33 -4.3 24.2
11:55 1025 30.27 854 25.22 11.8 53.2 33 -4.1 24.6
12:00 1025 30.27 854 25.22 11.3 52.3 33 -4.5 23.9
12:05 1025 30.27 854 25.22 11.6 52.8 33 -4.2 24.4
12:10 1024 30.24 854 25.22 12.1 53.7 32 -4.3 24.3
12:15 1024 30.24 854 25.22 12 53.6 31 -4.6 23.7
12:20 1024 30.24 854 25.22 12.5 54.4 31 -4.1 24.6
12:25 1024 30.24 853 25.19 12 53.6 32 -4.2 24.5
12:30 1024 30.24 853 25.19 12.4 54.4 32 -3.8 25.1
12:35 1024 30.24 853 25.19 12.1 53.9 30 -4.7 23.6
12:40 1024 30.24 853 25.19 12.3 54.1 32 -4.1 24.6
12:45 1024 30.24 853 25.19 12.6 54.7 32 -3.8 25.2
12:50 1024 30.24 853 25.19 12.6 54.7 31 -4.2 24.4
12:55 1024 30.24 853 25.19 12.3 54.2 31 -4.3 24.2
13:00 1024 30.24 853 25.19 12.9 55.2 30 -4.1 24.7
13:05 1024 30.24 853 25.19 13 55.3 30 -4.1 24.7
13:10 1024 30.24 853 25.19 13 55.4 29 -4.5 23.8
13:15 1024 30.24 853 25.19 13.3 56 29 -4.1 24.6
13:20 1024 30.24 853 25.19 13.2 55.8 30 -4 24.8
13:25 1024 30.24 853 25.19 13.8 56.8 28 -4.3 24.3
13:30 1024 30.24 853 25.19 13.8 56.9 30 -3.5 25.7
13:35 1024 30.24 853 25.19 13.8 56.9 29 -3.9 24.9
13:40 1024 30.24 853 25.19 13.6 56.4 29 -4.1 24.6
13:45 1023 30.21 853 25.19 13.7 56.6 28 -4.6 23.7
13:50 1023 30.21 853 25.19 13.5 56.3 29 -4.2 24.5
13:55 1023 30.21 852 25.16 13.9 56.9 29 -3.9 25.1
14:00 1023 30.21 852 25.16 14 57.2 28 -4.2 24.5
14:05 1023 30.21 852 25.16 14.1 57.4 28 -4.1 24.7
14:10 1023 30.21 852 25.16 14.1 57.3 29 -3.6 25.6
14:15 1023 30.21 852 25.16 14.5 58 27 -4 24.8
14:20 1023 30.21 852 25.16 14.4 58 27 -4.1 24.7
14:25 1023 30.21 852 25.16 14.5 58.1 28 -3.8 25.1
14:30 1023 30.21 852 25.16 14.8 58.6 29 -3.2 26.3
14:35 1023 30.21 852 25.16 14.3 57.8 29 -3.4 25.9
14:40 1023 30.21 852 25.16 14.6 58.2 28 -3.8 25.1
14:45 1023 30.21 852 25.16 14.8 58.7 28 -3.6 25.5
14:50 1023 30.21 852 25.16 15 59 27 -3.6 25.5
14:55 1023 30.21 852 25.16 15.1 59.1 27 -3.9 25
15:00 1023 30.21 852 25.16 15.2 59.3 26 -4 24.9
15:05 1023 30.21 852 25.16 14.8 58.7 27 -3.9 24.9
15:10 1023 30.21 852 25.16 14.9 58.7 27 -4 24.8
15:15 1023 30.21 852 25.16 14.5 58.1 28 -3.6 25.5
15:20 1023 30.21 852 25.16 14.7 58.5 28 -3.7 25.3
15:25 1022 30.18 852 25.16 15.1 59.2 27 -3.7 25.4
15:30 1022 30.18 852 25.16 14.9 58.9 27 -3.7 25.3
15:35 1022 30.18 852 25.16 15 59.1 28 -3.3 26
15:40 1022 30.18 852 25.16 14.7 58.5 28 -3.3 26.1
15:45 1022 30.18 852 25.16 15.1 59.3 28 -3.3 26.1
15:50 1022 30.18 852 25.16 14.9 58.9 28 -3.3 26.1
15:55 1022 30.18 852 25.16 14.8 58.7 28 -3.3 26
16:00 1022 30.18 852 25.16 15.1 59.1 28 -3.2 26.2
16:05 1022 30.18 852 25.16 14.9 58.8 28 -3.2 26.3
16:10 1022 30.18 852 25.16 14.6 58.3 29 -3.1 26.4
16:15 1022 30.18 852 25.16 14.7 58.4 29 -3.1 26.5
16:20 1022 30.18 852 25.16 14.9 58.8 28 -3.2 26.2
16:25 1022 30.18 852 25.16 14.6 58.2 29 -3.2 26.3
16:30 1022 30.18 852 25.16 14.3 57.7 29 -3.5 25.6
16:35 1022 30.18 852 25.16 14.3 57.8 28 -3.9 25
16:40 1022 30.18 852 25.16 14.5 58.1 28 -3.6 25.5
16:45 1022 30.18 852 25.16 14.3 57.7 29 -3.4 25.8
16:50 1022 30.18 852 25.16 14.2 57.5 29 -3.6 25.5
16:55 1022 30.18 852 25.16 14.1 57.4 29 -3.8 25.2
17:00 1022 30.18 852 25.16 14 57.2 29 -3.8 25.2
17:05 1022 30.18 852 25.16 14 57.1 29 -3.8 25.1
17:10 1022 30.18 852 25.16 13.8 56.9 29 -3.9 25.1
17:15 1022 30.18 852 25.16 13.7 56.6 29 -3.8 25.1
17:20 1022 30.18 852 25.16 13.6 56.4 30 -3.5 25.7
17:25 1022 30.18 852 25.16 13.6 56.5 30 -3.6 25.6
17:30 1022 30.18 852 25.16 13.7 56.6 29 -3.9 25
17:35 1022 30.18 852 25.16 13.5 56.2 30 -3.9 25
17:40 1022 30.18 851 25.13 13.3 56 31 -3.6 25.5
17:45 1022 30.18 851 25.13 13.2 55.7 31 -3.4 25.9
17:50 1022 30.18 851 25.13 12.9 55.2 32 -3.5 25.7
17:55 1022 30.18 851 25.13 12.9 55.2 31 -3.6 25.5
18:00 1022 30.18 851 25.13 12.7 54.9 32 -3.6 25.5
18:05 1022 30.18 851 25.13 12.5 54.5 32 -3.7 25.3
18:10 1022 30.18 851 25.13 12.4 54.3 32 -3.7 25.4
18:15 1022 30.18 851 25.13 12.3 54.1 32 -3.7 25.3
18:20 1022 30.18 851 25.13 12.1 53.7 32 -3.9 25
18:25 1022 30.18 851 25.13 12 53.6 32 -4 24.8
18:30 1022 30.18 851 25.13 12 53.5 33 -3.7 25.3
18:35 1022 30.18 852 25.16 11.9 53.3 33 -3.8 25.2
18:40 1022 30.18 852 25.16 11.7 53.1 34 -3.7 25.3
18:45 1022 30.18 852 25.16 11.6 52.9 34 -3.8 25.2
18:50 1022 30.18 852 25.16 11.5 52.7 34 -3.8 25.2
18:55 1023 30.21 852 25.16 11.4 52.4 35 -3.5 25.6
19:00 1023 30.21 852 25.16 11.2 52.2 34 -3.9 25
19:05 1023 30.21 852 25.16 11.1 52 35 -3.7 25.3
19:10 1023 30.21 852 25.16 11 51.8 36 -3.5 25.8
19:15 1023 30.21 852 25.16 10.8 51.5 36 -3.4 25.8
19:20 1023 30.21 852 25.16 10.7 51.3 36 -3.5 25.6
19:25 1023 30.21 852 25.16 10.6 51.2 37 -3.5 25.7
19:30 1023 30.21 852 25.16 10.5 50.9 37 -3.5 25.7
19:35 1023 30.21 852 25.16 10.4 50.6 38 -3.3 26
19:40 1023 30.21 852 25.16 10.2 50.4 38 -3.3 26
19:45 1023 30.21 852 25.16 10 50.1 39 -3.3 26
19:50 1023 30.21 852 25.16 9.9 49.9 40 -3.2 26.3
19:55 1023 30.21 852 25.16 9.7 49.4 41 -3 26.5
20:00 1023 30.21 852 25.16 9.5 49.1 41 -3.1 26.4
20:05 1023 30.21 852 25.16 9.4 49 41 -3.1 26.4
20:10 1023 30.21 852 25.16 9.3 48.8 41 -3.1 26.4
20:15 1023 30.21 852 25.16 9.2 48.6 42 -3.1 26.4
20:20 1023 30.21 852 25.16 9.2 48.5 41 -3.3 26
20:25 1023 30.21 852 25.16 9.2 48.6 40 -3.6 25.6
20:30 1023 30.21 852 25.16 9.3 48.7 40 -3.6 25.6
20:35 1023 30.21 852 25.16 9.2 48.6 40 -3.5 25.7
20:40 1023 30.21 852 25.16 9.1 48.4 41 -3.6 25.6
20:45 1023 30.21 852 25.16 9.1 48.3 41 -3.5 25.8
20:50 1023 30.21 852 25.16 9 48.2 41 -3.5 25.8
20:55 1023 30.21 852 25.16 8.9 48 42 -3.4 25.9
21:00 1023 30.21 853 25.19 8.9 48 42 -3.4 25.8
21:05 1023 30.21 853 25.19 8.8 47.9 42 -3.5 25.8
21:10 1023 30.21 853 25.19 8.8 47.9 42 -3.4 25.9
21:15 1023 30.21 853 25.19 8.8 47.8 42 -3.4 25.9
21:20 1023 30.21 853 25.19 8.8 47.9 42 -3.2 26.2
21:25 1024 30.24 853 25.19 8.8 47.8 43 -3.2 26.2
21:30 1024 30.24 853 25.19 8.8 47.9 42 -3.3 26
21:35 1024 30.24 853 25.19 8.9 47.9 42 -3.2 26.2
21:40 1024 30.24 853 25.19 8.8 47.8 43 -3.1 26.4
21:45 1024 30.24 853 25.19 8.7 47.7 43 -3 26.5
21:50 1024 30.24 853 25.19 8.6 47.4 44 -2.8 26.9
21:55 1024 30.24 853 25.19 8.4 47.1 45 -2.9 26.8
22:00 1024 30.24 853 25.19 8.4 47.1 44 -3 26.5
22:05 1024 30.24 853 25.19 8.4 47.2 45 -2.9 26.8
22:10 1024 30.24 853 25.19 8.4 47.1 44 -3 26.5
22:15 1024 30.24 853 25.19 8.3 47 45 -2.9 26.8
22:20 1024 30.24 853 25.19 8.2 46.8 45 -3 26.7
22:25 1024 30.24 853 25.19 8.2 46.7 45 -2.9 26.8
22:30 1024 30.24 853 25.19 8.1 46.5 46 -2.9 26.8
22:35 1024 30.24 853 25.19 8 46.4 46 -2.9 26.9
22:40 1023 30.21 853 25.19 8 46.4 46 -2.9 26.8
22:45 1023 30.21 853 25.19 8 46.4 46 -2.9 26.8
22:50 1023 30.21 853 25.19 7.9 46.3 47 -2.8 27
22:55 1023 30.21 853 25.19 7.9 46.2 46 -2.9 26.8
23:00 1023 30.21 853 25.19 7.8 46 47 -2.8 27
23:05 1023 30.21 853 25.19 7.5 45.6 48 -2.7 27.2
23:10 1023 30.21 853 25.19 7.2 45 49 -2.6 27.3
23:15 1023 30.21 853 25.19 7 44.7 50 -2.5 27.4
23:20 1023 30.21 853 25.19 6.6 43.8 52 -2.5 27.5
23:25 1023 30.21 853 25.19 6.4 43.5 52 -2.7 27.2
23:30 1023 30.21 853 25.19 6.3 43.4 52 -2.7 27.2
23:35 1023 30.21 853 25.19 6.4 43.5 52 -2.8 27
23:40 1023 30.21 853 25.19 6.6 43.8 52 -2.7 27.2
23:45 1023 30.21 853 25.19 6.6 43.9 51 -2.7 27.1
23:50 1023 30.21 853 25.19 6.7 44 51 -2.7 27.1
23:55 1023 30.21 853 25.19 6.7 44 51 -2.6 27.2
24:00 1023 30.21 853 25.19 6.6 43.8 51 -2.7 27.1